Weather at Niagara District Airport

Public forecast

Using degrees Celsius for public forecast. Weather courtesy of forecast.io.

Current aviation weather report (METAR) for Niagara District Airport

Retrieved 2021/01/26 00:00 UTC (24 minutes ago):

CYSN 260000Z 10004KT 15SM BKN200 M02/M05 A3005 RMK CI7 SLP183

Aviation forecast (TAF) for Niagara District Airport

Retrieved 2021/01/25 20:00 UTC (4 hours ago):

TAF CYSN 251938Z 2520/2602 VRB03KT P6SM SCT040 BKN180 TEMPO 2520/2602 BKN040 BECMG 2522/2524 05007KT RMK NXT FCST WILL BE ISSUED AT 261345Z